Time;durP1;ratioP1;P1;durP2;ratioP2;P2;SDS_P1;SDS_P2;PMS_P1;PMS_P2;Temp;Humidity;BMP_temperature;BMP_pressure;BME280_temperature;BME280_humidity;BME280_pressure;Samples;Min_cycle;Max_cycle;Signal;HPM_P1;HPM_P2
2022/05/12 00:02:23;;;;;;;6.17;2.42;;;;;;;12.65;100.00;101487.11;1885930;76;21046;-73
2022/05/12 00:04:51;;;;;;;5.45;1.50;;;;;;;12.67;100.00;101487.13;1886596;74;21562;-73
2022/05/12 00:07:18;;;;;;;5.62;1.80;;;;;;;12.65;100.00;101490.98;1887039;75;21490;-73
2022/05/12 00:09:46;;;;;;;4.85;2.08;;;;;;;12.68;100.00;101499.19;1893906;74;21143;-73
2022/05/12 00:12:14;;;;;;;5.78;1.95;;;;;;;12.59;100.00;101499.98;1886540;75;21098;-73
2022/05/12 00:14:41;;;;;;;9.78;2.08;;;;;;;12.58;100.00;101501.68;1881755;75;21082;-73
2022/05/12 00:17:08;;;;;;;8.38;1.98;;;;;;;12.48;100.00;101498.61;1887522;75;21672;-73
2022/05/12 00:19:37;;;;;;;7.10;2.10;;;;;;;12.41;100.00;101504.11;1886826;76;21161;-73
2022/05/12 00:22:05;;;;;;;3.80;1.85;;;;;;;12.28;100.00;101504.45;1886526;75;21070;-73
2022/05/12 00:24:32;;;;;;;6.55;1.62;;;;;;;12.27;100.00;101503.99;1861709;76;21090;-73
2022/05/12 00:26:59;;;;;;;6.65;1.40;;;;;;;12.25;100.00;101509.58;1886759;75;21050;-73
2022/05/12 00:29:27;;;;;;;4.65;1.80;;;;;;;12.19;100.00;101506.93;1874832;75;21117;-73
2022/05/12 00:31:54;;;;;;;6.95;1.90;;;;;;;12.04;100.00;101511.48;1886978;75;21108;-73
2022/05/12 00:34:22;;;;;;;4.70;1.40;;;;;;;12.15;100.00;101506.46;1864568;76;21092;-73
2022/05/12 00:36:50;;;;;;;2.75;1.57;;;;;;;12.06;100.00;101509.39;1865475;77;21082;-73
2022/05/12 00:39:18;;;;;;;5.78;1.92;;;;;;;12.00;100.00;101510.16;1871126;77;21157;-73
2022/05/12 00:41:45;;;;;;;7.37;1.40;;;;;;;11.97;100.00;101510.56;1871716;77;21482;-73
2022/05/12 00:44:15;;;;;;;16.52;2.50;;;;;;;12.00;100.00;101508.87;1871503;75;21086;-73
2022/05/12 00:46:44;;;;;;;8.58;2.15;;;;;;;11.95;100.00;101494.21;1850993;77;21123;-73
2022/05/12 00:49:32;;;;;;;4.60;1.55;;;;;;;12.12;100.00;101497.87;1871291;77;21505;-73
2022/05/12 00:52:13;;;;;;;3.17;1.50;;;;;;;12.11;100.00;101487.55;1871522;75;21753;-73
2022/05/12 00:55:01;;;;;;;8.25;3.15;;;;;;;12.11;100.00;101487.11;1871690;77;21090;-73
2022/05/12 00:57:31;;;;;;;5.62;1.72;;;;;;;12.09;100.00;101486.24;1871712;77;21027;-74
2022/05/12 01:00:00;;;;;;;5.22;1.70;;;;;;;11.93;100.00;101488.20;1871267;76;21050;-73
2022/05/12 01:02:28;;;;;;;4.78;1.80;;;;;;;11.83;100.00;101489.81;1871169;77;21157;-74
2022/05/12 01:04:59;;;;;;;10.13;2.33;;;;;;;11.75;100.00;101485.85;1849236;77;21078;-74
2022/05/12 01:07:27;;;;;;;9.95;2.08;;;;;;;11.80;100.00;101484.63;1871591;77;21117;-74
2022/05/12 01:09:55;;;;;;;7.87;2.15;;;;;;;11.77;100.00;101491.90;1871799;77;21629;-74
2022/05/12 01:12:23;;;;;;;7.53;2.02;;;;;;;11.75;100.00;101481.99;1870871;77;21467;-74
2022/05/12 01:14:50;;;;;;;6.55;1.55;;;;;;;11.69;100.00;101489.66;1872192;77;21086;-74
2022/05/12 01:17:19;;;;;;;5.03;1.67;;;;;;;11.66;100.00;101488.34;1870965;76;21414;-73
2022/05/12 01:19:48;;;;;;;5.62;2.58;;;;;;;11.66;100.00;101484.06;1871002;77;21694;-73
2022/05/12 01:22:28;;;;;;;3.52;2.10;;;;;;;11.70;100.00;101487.11;1871113;77;21086;-74
2022/05/12 01:24:55;;;;;;;6.08;1.60;;;;;;;11.68;100.00;101471.22;1869193;76;21624;-74
2022/05/12 01:27:22;;;;;;;14.60;1.98;;;;;;;11.77;100.00;101485.88;1877051;76;21041;-73
2022/05/12 01:29:56;;;;;;;5.53;1.40;;;;;;;11.76;100.00;101475.14;1855078;77;21104;-73
2022/05/12 01:32:26;;;;;;;15.25;1.75;;;;;;;11.75;100.00;101489.72;1871273;76;21477;-74
2022/05/12 01:34:54;;;;;;;5.45;1.57;;;;;;;11.70;100.00;101484.95;1852088;76;21160;-74
2022/05/12 01:37:23;;;;;;;9.80;2.62;;;;;;;11.72;100.00;101484.11;1881191;76;21558;-73
2022/05/12 01:39:51;;;;;;;6.90;1.70;;;;;;;11.64;100.00;101487.47;1880993;75;21027;-73
2022/05/12 01:42:18;;;;;;;4.10;1.82;;;;;;;11.63;100.00;101490.45;1826558;76;21566;-73
2022/05/12 01:44:46;;;;;;;8.00;1.75;;;;;;;11.66;100.00;101498.63;1881569;76;21075;-73
2022/05/12 01:47:15;;;;;;;7.80;2.20;;;;;;;11.70;100.00;101497.41;1881402;75;21066;-73
2022/05/12 01:49:43;;;;;;;7.85;1.85;;;;;;;11.66;100.00;101496.06;1880711;76;21128;-73
2022/05/12 01:52:11;;;;;;;3.72;1.42;;;;;;;11.72;100.00;101485.84;1875521;75;21066;-73
2022/05/12 01:54:38;;;;;;;5.55;1.82;;;;;;;11.74;100.00;101489.28;1880990;74;21137;-73
2022/05/12 01:57:06;;;;;;;6.87;1.85;;;;;;;11.67;100.00;101490.05;1881210;76;21677;-73
2022/05/12 01:59:34;;;;;;;3.35;1.30;;;;;;;11.65;100.00;101495.63;1861599;76;21034;-73
2022/05/12 02:02:03;;;;;;;6.10;1.62;;;;;;;11.66;100.00;101496.06;1881014;75;21027;-73
2022/05/12 02:04:30;;;;;;;8.10;1.55;;;;;;;11.60;100.00;101496.44;1881229;75;21171;-73
2022/05/12 02:06:57;;;;;;;15.08;2.33;;;;;;;11.62;100.00;101497.75;1873795;76;21105;-73
2022/05/12 02:09:25;;;;;;;5.00;1.52;;;;;;;11.63;100.00;101502.04;1881879;76;21479;-73
2022/05/12 02:11:53;;;;;;;7.05;1.98;;;;;;;11.66;100.00;101507.64;1889348;75;21032;-73
2022/05/12 02:14:21;;;;;;;20.27;2.08;;;;;;;11.61;100.00;101508.45;1881833;75;21086;-73
2022/05/12 02:16:48;;;;;;;9.00;2.00;;;;;;;11.55;100.00;101516.53;1856742;76;21153;-73
2022/05/12 02:19:16;;;;;;;4.53;1.32;;;;;;;11.57;100.00;101518.27;1880997;76;21519;-73
2022/05/12 02:21:43;;;;;;;7.85;3.33;;;;;;;11.52;100.00;101515.20;1881545;76;21026;-73
2022/05/12 02:24:11;;;;;;;9.98;2.05;;;;;;;11.50;100.00;101516.46;1880932;75;21511;-73
2022/05/12 02:26:38;;;;;;;5.90;1.90;;;;;;;11.40;100.00;101515.92;1881039;76;21604;-73
2022/05/12 02:29:06;;;;;;;8.05;1.50;;;;;;;11.44;100.00;101516.41;1881306;75;21716;-74
2022/05/12 02:31:34;;;;;;;3.35;1.02;;;;;;;11.30;100.00;101519.64;1881481;76;21058;-73
2022/05/12 02:34:01;;;;;;;7.30;1.80;;;;;;;11.10;100.00;101517.66;1878974;76;21034;-74
2022/05/12 02:36:29;;;;;;;4.92;1.85;;;;;;;11.02;100.00;101518.41;1886637;76;21196;-74
2022/05/12 02:38:56;;;;;;;6.75;1.67;;;;;;;10.95;100.00;101522.17;1892016;76;21494;-74
2022/05/12 02:41:24;;;;;;;2.33;1.62;;;;;;;10.89;100.00;101522.06;1892243;74;21034;-73
2022/05/12 02:43:52;;;;;;;5.12;1.42;;;;;;;10.80;100.00;101527.08;1893700;74;21148;-74
2022/05/12 02:46:20;;;;;;;6.67;2.17;;;;;;;10.84;100.00;101534.87;1893277;76;21142;-74
2022/05/12 02:48:50;;;;;;;4.85;2.22;;;;;;;10.79;100.00;101531.37;1892850;74;21015;-74
2022/05/12 02:51:17;;;;;;;9.33;1.92;;;;;;;10.93;100.00;101538.42;1893114;74;21066;-74
2022/05/12 02:53:45;;;;;;;5.72;1.65;;;;;;;10.96;100.00;101537.19;1892465;74;21113;-74
2022/05/12 02:56:13;;;;;;;5.33;1.67;;;;;;;10.88;100.00;101543.92;1893052;76;21188;-74
2022/05/12 02:58:41;;;;;;;4.97;1.62;;;;;;;10.84;100.00;101551.58;1892624;74;21085;-73
2022/05/12 03:01:08;;;;;;;5.90;1.82;;;;;;;10.83;100.00;101548.98;1892580;74;21109;-73
2022/05/12 03:03:36;;;;;;;5.87;2.05;;;;;;;10.86;100.00;101550.73;1892036;75;21235;-73
2022/05/12 03:06:04;;;;;;;6.65;2.37;;;;;;;10.80;100.00;101553.66;1872778;74;21144;-73
2022/05/12 03:08:31;;;;;;;5.92;1.57;;;;;;;10.78;100.00;101552.75;1892039;75;21049;-74
2022/05/12 03:10:58;;;;;;;4.25;1.95;;;;;;;10.86;100.00;101558.03;1893029;76;21101;-73
2022/05/12 03:13:26;;;;;;;5.03;1.47;;;;;;;10.91;100.00;101555.10;1870201;76;21111;-74
2022/05/12 03:15:53;;;;;;;9.40;1.85;;;;;;;10.78;100.00;101554.48;1893565;76;21562;-73
2022/05/12 03:18:21;;;;;;;4.90;1.50;;;;;;;10.62;100.00;101552.06;1892704;75;21585;-73
2022/05/12 03:20:48;;;;;;;3.47;1.65;;;;;;;10.62;100.00;101555.91;1914028;74;21158;-73
2022/05/12 03:23:17;;;;;;;6.53;1.80;;;;;;;10.68;100.00;101553.46;1893721;74;21071;-74
2022/05/12 03:25:44;;;;;;;5.08;2.05;;;;;;;10.73;100.00;101552.23;1892008;74;21157;-74
2022/05/12 03:28:12;;;;;;;4.10;1.77;;;;;;;10.77;100.00;101555.30;1892577;74;21120;-74
2022/05/12 03:30:41;;;;;;;6.35;2.05;;;;;;;10.84;100.00;101557.12;1892615;75;21031;-74
2022/05/12 03:33:09;;;;;;;3.35;1.45;;;;;;;10.92;100.00;101561.97;1893040;76;21181;-74
2022/05/12 03:35:36;;;;;;;6.30;1.60;;;;;;;10.95;100.00;101554.72;1893083;75;21176;-73
2022/05/12 03:38:05;;;;;;;9.33;2.77;;;;;;;10.92;100.00;101553.41;1871060;75;21097;-73
2022/05/12 03:40:33;;;;;;;5.70;1.80;;;;;;;10.93;100.00;101556.01;1851958;76;21130;-73
2022/05/12 03:43:00;;;;;;;8.08;2.62;;;;;;;10.80;100.00;101557.52;1868500;77;21204;-73
2022/05/12 03:45:29;;;;;;;5.35;1.92;;;;;;;10.74;100.00;101550.12;1867952;77;21066;-73
2022/05/12 03:47:57;;;;;;;8.30;1.77;;;;;;;10.83;100.00;101552.42;1845720;77;21121;-73
2022/05/12 03:50:27;;;;;;;8.45;1.60;;;;;;;10.83;100.00;101546.00;1846557;77;21112;-73
2022/05/12 03:52:55;;;;;;;6.90;2.10;;;;;;;10.88;100.00;101545.20;1859349;77;21110;-73
2022/05/12 03:55:26;;;;;;;5.83;1.80;;;;;;;10.93;100.00;101548.70;1868432;77;21090;-73
2022/05/12 03:57:55;;;;;;;4.60;1.57;;;;;;;10.89;100.00;101550.78;1868908;77;21095;-74
2022/05/12 04:00:26;;;;;;;8.68;1.72;;;;;;;10.89;100.00;101545.64;1868709;77;21086;-73
2022/05/12 04:02:53;;;;;;;4.08;2.27;;;;;;;10.92;100.00;101554.70;1869411;77;21121;-74
2022/05/12 04:05:21;;;;;;;4.83;1.70;;;;;;;10.93;100.00;101560.27;1846942;77;21137;-73
2022/05/12 04:07:49;;;;;;;9.60;2.85;;;;;;;10.86;100.00;101557.16;1868413;76;21192;-73
2022/05/12 04:10:17;;;;;;;4.75;1.55;;;;;;;10.78;100.00;101560.91;1866683;77;21118;-74
2022/05/12 04:12:44;;;;;;;5.30;2.30;;;;;;;10.77;100.00;101558.74;1867983;77;21039;-74
2022/05/12 04:15:15;;;;;;;6.95;1.57;;;;;;;10.77;100.00;101560.02;1863224;76;21085;-73
2022/05/12 04:17:41;;;;;;;8.45;1.72;;;;;;;10.79;100.00;101558.77;1868313;76;21144;-74
2022/05/12 04:20:15;;;;;;;6.65;2.05;;;;;;;10.82;100.00;101555.81;1868235;77;21090;-73
2022/05/12 04:22:43;;;;;;;5.45;1.80;;;;;;;10.69;100.00;101551.33;1847828;77;21140;-73
2022/05/12 04:25:11;;;;;;;7.25;2.70;;;;;;;10.69;100.00;101554.77;1867441;75;21658;-73
2022/05/12 04:27:40;;;;;;;4.05;1.47;;;;;;;10.72;100.00;101552.67;1855063;76;21093;-73
2022/05/12 04:30:11;;;;;;;14.60;3.62;;;;;;;10.76;100.00;101554.45;1869301;77;21028;-73
2022/05/12 04:32:39;;;;;;;5.62;1.77;;;;;;;10.76;100.00;101548.43;1868578;77;21145;-73
2022/05/12 04:35:15;;;;;;;3.08;1.17;;;;;;;10.87;100.00;101549.88;1868916;75;21585;-74
2022/05/12 04:37:45;;;;;;;4.55;2.00;;;;;;;10.97;100.00;101546.62;1870249;76;21203;-73
2022/05/12 04:40:24;;;;;;;5.55;1.67;;;;;;;10.89;100.00;101541.78;1875132;76;21042;-74
2022/05/12 04:42:53;;;;;;;7.87;1.87;;;;;;;10.78;100.00;101546.77;1873710;75;21063;-74
2022/05/12 04:45:23;;;;;;;3.40;1.75;;;;;;;10.83;100.00;101551.55;1874558;76;21527;-74
2022/05/12 04:47:51;;;;;;;8.93;1.72;;;;;;;10.93;100.00;101552.56;1873635;76;21124;-74
2022/05/12 04:50:21;;;;;;;5.20;1.60;;;;;;;10.97;100.00;101556.91;1882662;75;21144;-74
2022/05/12 04:52:49;;;;;;;3.37;1.32;;;;;;;10.99;100.00;101550.06;1815556;77;21059;-74
2022/05/12 04:55:17;;;;;;;4.85;1.77;;;;;;;10.99;100.00;101553.92;1817483;78;21157;-74
2022/05/12 04:57:49;;;;;;;5.62;1.40;;;;;;;10.85;100.00;101558.84;1818122;78;21146;-74
2022/05/12 05:00:20;;;;;;;3.77;1.25;;;;;;;10.78;100.00;101556.61;1862667;76;21078;-74
2022/05/12 05:02:47;;;;;;;6.60;1.92;;;;;;;10.76;100.00;101563.85;1880137;74;21099;-74
2022/05/12 05:05:15;;;;;;;5.58;1.90;;;;;;;10.80;100.00;101562.66;1852661;76;21348;-74
2022/05/12 05:07:42;;;;;;;7.33;2.20;;;;;;;10.80;100.00;101563.94;1870728;76;21155;-74
2022/05/12 05:10:12;;;;;;;9.33;2.10;;;;;;;10.86;100.00;101572.58;1867024;75;21101;-74
2022/05/12 05:12:42;;;;;;;4.83;1.60;;;;;;;10.94;100.00;101575.73;1882785;75;21042;-74
2022/05/12 05:15:11;;;;;;;10.05;2.85;;;;;;;11.02;100.00;101588.69;1870291;75;21188;-74
2022/05/12 05:17:39;;;;;;;7.87;2.08;;;;;;;11.09;100.00;101587.07;1873648;76;21106;-74
2022/05/12 05:20:10;;;;;;;7.50;2.40;;;;;;;11.20;100.00;101586.81;1874297;76;21118;-74
2022/05/12 05:22:37;;;;;;;4.78;2.00;;;;;;;11.20;100.00;101588.55;1875580;75;21089;-74
2022/05/12 05:25:06;;;;;;;6.22;2.37;;;;;;;11.23;100.00;101587.28;1873850;75;21143;-74
2022/05/12 05:27:33;;;;;;;6.58;2.40;;;;;;;11.24;100.00;101590.31;1888211;75;21485;-73
2022/05/12 05:30:01;;;;;;;4.87;2.20;;;;;;;11.39;100.00;101588.38;1878244;75;21117;-74
2022/05/12 05:32:28;;;;;;;6.03;2.35;;;;;;;11.58;100.00;101588.64;1878701;75;21082;-74
2022/05/12 05:34:56;;;;;;;7.28;2.30;;;;;;;11.64;100.00;101598.16;1881422;75;21140;-74
2022/05/12 05:37:24;;;;;;;9.60;3.52;;;;;;;11.52;100.00;101599.72;1855250;76;21075;-74
2022/05/12 05:39:51;;;;;;;4.95;2.30;;;;;;;11.62;100.00;101608.42;1866038;77;21126;-75
2022/05/12 05:42:20;;;;;;;6.47;3.05;;;;;;;11.57;100.00;101607.48;1866215;75;21163;-75
2022/05/12 05:44:49;;;;;;;6.33;2.00;;;;;;;11.85;100.00;101611.29;1866148;77;21083;-76
2022/05/12 05:47:17;;;;;;;8.80;2.35;;;;;;;11.90;100.00;101604.04;1864281;77;21016;-75
2022/05/12 05:49:44;;;;;;;8.48;2.10;;;;;;;12.04;100.00;101620.53;1866640;75;21028;-76
2022/05/12 05:54:58;;;;;;;7.45;2.37;;;;;;;12.00;100.00;101620.05;1848092;77;21524;-74
2022/05/12 05:57:30;;;;;;;8.68;2.52;;;;;;;12.22;100.00;101625.47;1844289;77;21491;-75
2022/05/12 05:59:58;;;;;;;10.78;2.55;;;;;;;12.24;100.00;101620.78;1865286;76;21173;-75
2022/05/12 06:02:26;;;;;;;12.15;2.72;;;;;;;11.96;100.00;101615.27;1868329;75;21610;-74
2022/05/12 06:04:54;;;;;;;15.20;3.55;;;;;;;12.04;100.00;101621.82;1865872;77;21083;-74
2022/05/12 06:07:21;;;;;;;10.53;2.95;;;;;;;12.10;100.00;101627.06;1865170;77;21130;-74
2022/05/12 06:09:48;;;;;;;14.87;3.65;;;;;;;12.16;100.00;101630.13;1864433;75;21109;-74
2022/05/12 06:12:17;;;;;;;17.80;5.75;;;;;;;11.68;100.00;101647.11;1843364;76;21039;-74
2022/05/12 06:14:44;;;;;;;9.55;3.37;;;;;;;11.97;100.00;101650.92;1863169;75;21155;-74
2022/05/12 06:17:12;;;;;;;17.20;4.08;;;;;;;11.99;100.00;101647.92;1862700;77;21106;-74
2022/05/12 06:19:41;;;;;;;12.55;3.67;;;;;;;12.07;100.00;101651.93;1863246;76;21101;-74
2022/05/12 06:22:08;;;;;;;6.03;2.87;;;;;;;12.36;100.00;101641.97;1864637;76;21075;-74
2022/05/12 06:24:38;;;;;;;9.63;2.55;;;;;;;12.69;100.00;101639.69;1864403;77;21456;-74
2022/05/12 06:27:06;;;;;;;7.65;2.58;;;;;;;12.84;100.00;101648.02;1868359;76;21143;-74
2022/05/12 06:29:33;;;;;;;10.00;3.17;;;;;;;13.09;100.00;101646.92;1813331;77;21203;-74
2022/05/12 06:32:01;;;;;;;8.78;3.25;;;;;;;12.97;100.00;101648.13;1878111;75;21097;-74
2022/05/12 06:34:29;;;;;;;7.20;2.22;;;;;;;13.33;100.00;101641.51;1830994;76;21090;-74
2022/05/12 06:36:59;;;;;;;9.83;2.45;;;;;;;13.57;100.00;101641.67;1855455;76;21203;-73
2022/05/12 06:39:26;;;;;;;7.70;2.62;;;;;;;13.74;100.00;101637.89;1852898;76;21144;-73
2022/05/12 06:41:53;;;;;;;10.48;2.47;;;;;;;13.97;100.00;101646.19;1846893;76;21178;-73
2022/05/12 06:44:21;;;;;;;8.30;3.00;;;;;;;14.02;100.00;101645.35;1847927;76;21217;-73
2022/05/12 06:46:48;;;;;;;5.78;2.40;;;;;;;14.11;100.00;101629.45;1842654;76;21100;-73
2022/05/12 06:49:17;;;;;;;10.58;3.08;;;;;;;14.15;100.00;101641.06;1846414;77;21093;-73
2022/05/12 06:51:45;;;;;;;14.25;2.85;;;;;;;14.12;100.00;101638.91;1846717;77;21503;-73
2022/05/12 06:54:14;;;;;;;10.03;3.15;;;;;;;14.28;100.00;101643.27;1842778;76;21178;-73
2022/05/12 06:56:42;;;;;;;10.75;3.12;;;;;;;14.10;100.00;101651.83;1846206;76;21135;-73
2022/05/12 06:59:09;;;;;;;13.05;2.92;;;;;;;14.05;100.00;101653.54;1847336;76;21131;-74
2022/05/12 07:01:37;;;;;;;9.15;2.50;;;;;;;14.24;100.00;101645.83;1847026;76;21082;-73
2022/05/12 07:04:04;;;;;;;6.90;2.72;;;;;;;14.61;100.00;101643.34;1815527;79;21093;-73
2022/05/12 07:06:32;;;;;;;9.40;3.22;;;;;;;14.73;100.00;101644.23;1847834;77;21052;-73
2022/05/12 07:08:59;;;;;;;14.35;3.95;;;;;;;14.62;100.00;101650.23;1847994;76;21095;-75
2022/05/12 07:11:27;;;;;;;12.37;2.35;;;;;;;14.88;100.00;101639.09;1854916;76;21017;-74
2022/05/12 07:13:54;;;;;;;12.68;3.55;;;;;;;15.29;100.00;101645.08;1819015;77;21611;-75
2022/05/12 07:16:22;;;;;;;8.15;2.27;;;;;;;15.54;100.00;101635.12;1881899;76;21038;-74
2022/05/12 07:18:49;;;;;;;11.15;2.50;;;;;;;15.67;100.00;101641.14;1880536;75;21404;-73
2022/05/12 07:26:50;;;;;;;11.85;3.05;;;;;;;15.01;100.00;101642.97;1880036;75;21123;-74
2022/05/12 07:29:20;;;;;;;16.37;3.37;;;;;;;15.11;100.00;101651.59;1881099;76;21054;-74
2022/05/12 07:31:48;;;;;;;6.40;2.50;;;;;;;14.87;100.00;101658.50;1885349;74;21116;-75
2022/05/12 07:34:16;;;;;;;15.58;2.47;;;;;;;15.31;100.00;101656.73;1881621;75;21213;-73
2022/05/12 07:36:46;;;;;;;8.25;3.20;;;;;;;15.48;100.00;101667.95;1862300;74;21026;-75
2022/05/12 07:39:13;;;;;;;15.70;3.27;;;;;;;15.96;100.00;101672.59;1903474;73;21089;-76
2022/05/12 07:41:42;;;;;;;7.30;1.92;;;;;;;16.23;100.00;101678.07;1890010;74;21466;-75
2022/05/12 07:44:14;;;;;;;7.85;2.85;;;;;;;16.50;100.00;101687.00;1890150;76;21151;-75
2022/05/12 07:46:42;;;;;;;9.65;2.60;;;;;;;16.36;100.00;101693.14;1870944;74;21085;-75
2022/05/12 07:49:10;;;;;;;10.65;2.30;;;;;;;16.17;100.00;101693.67;1865782;75;21159;-75
2022/05/12 07:51:37;;;;;;;8.90;1.95;;;;;;;16.20;100.00;101696.69;1890754;76;21041;-75
2022/05/12 07:54:05;;;;;;;7.70;2.87;;;;;;;16.34;100.00;101692.73;1883311;76;21078;-75
2022/05/12 07:56:34;;;;;;;9.68;2.22;;;;;;;16.94;100.00;101697.09;1890545;76;21462;-74
2022/05/12 07:59:04;;;;;;;4.35;1.95;;;;;;;17.14;100.00;101698.28;1889853;76;21116;-74
2022/05/12 08:01:31;;;;;;;7.92;2.00;;;;;;;16.95;100.00;101707.92;1890209;74;21551;-75
2022/05/12 08:03:58;;;;;;;9.28;2.12;;;;;;;17.18;100.00;101699.97;1890708;76;21054;-75
2022/05/12 08:06:26;;;;;;;14.80;3.55;;;;;;;16.99;100.00;101704.43;1900326;74;21073;-74
2022/05/12 08:08:53;;;;;;;10.08;2.62;;;;;;;16.87;100.00;101703.64;1895762;73;21095;-74
2022/05/12 08:11:21;;;;;;;7.70;2.12;;;;;;;16.80;100.00;101699.37;1905349;74;21206;-76
2022/05/12 08:13:48;;;;;;;12.20;2.17;;;;;;;16.72;100.00;101703.75;1890714;74;21132;-74
2022/05/12 08:16:18;;;;;;;9.95;2.58;;;;;;;16.23;100.00;101698.81;1890255;76;21058;-74
2022/05/12 08:18:46;;;;;;;12.37;2.62;;;;;;;16.58;100.00;101701.24;1866117;76;21070;-74
2022/05/12 08:21:14;;;;;;;11.18;2.30;;;;;;;16.29;100.00;101698.37;1890440;74;21159;-74
2022/05/12 08:23:45;;;;;;;13.65;2.30;;;;;;;16.51;100.00;101690.05;1889197;76;21463;-74
2022/05/12 08:26:12;;;;;;;7.60;1.90;;;;;;;16.28;100.00;101692.32;1890494;75;21691;-74
2022/05/12 08:28:40;;;;;;;13.65;2.27;;;;;;;16.47;100.00;101691.78;1891389;74;21105;-74
2022/05/12 08:31:09;;;;;;;7.92;1.90;;;;;;;16.35;100.00;101695.31;1891366;76;21090;-74
2022/05/12 08:33:36;;;;;;;8.88;1.75;;;;;;;16.12;100.00;101691.55;1891146;76;21511;-75
2022/05/12 08:36:05;;;;;;;5.80;2.25;;;;;;;16.21;100.00;101696.68;1891217;74;21152;-75
2022/05/12 08:38:34;;;;;;;7.00;2.17;;;;;;;16.45;100.00;101701.31;1891683;74;21674;-74
2022/05/12 08:41:20;;;;;;;12.18;2.37;;;;;;;16.93;100.00;101699.27;1881783;74;21092;-75
2022/05/12 08:44:03;;;;;;;8.73;2.67;;;;;;;17.26;100.00;101702.48;1867333;74;21221;-73
2022/05/12 08:46:53;;;;;;;6.30;2.33;;;;;;;17.72;100.00;101697.73;1881397;75;21537;-73
2022/05/12 08:49:32;;;;;;;8.85;2.27;;;;;;;17.78;100.00;101697.64;1880675;74;21143;-73
2022/05/12 08:52:21;;;;;;;7.62;2.20;;;;;;;17.92;100.00;101693.16;1876937;74;21162;-73
2022/05/12 08:54:57;;;;;;;9.65;2.17;;;;;;;18.14;100.00;101694.67;1862551;75;21182;-73
2022/05/12 08:57:55;;;;;;;6.87;2.22;;;;;;;17.82;100.00;101698.49;1880889;75;21014;-73
2022/05/12 09:00:24;;;;;;;7.00;1.70;;;;;;;18.11;100.00;101689.08;1881972;75;21037;-73
2022/05/12 09:02:54;;;;;;;11.10;1.70;;;;;;;18.11;100.00;101689.08;1881739;74;21397;-73
2022/05/12 09:05:33;;;;;;;8.08;1.87;;;;;;;18.23;100.00;101691.94;1882005;75;21130;-73
2022/05/12 09:08:14;;;;;;;10.60;2.58;;;;;;;18.23;100.00;101691.94;1883522;74;21603;-73
2022/05/12 09:11:04;;;;;;;5.17;1.50;;;;;;;18.31;100.00;101697.06;1852415;76;21126;-73
2022/05/12 09:13:42;;;;;;;7.35;2.20;;;;;;;18.44;100.00;101693.83;1890533;74;21029;-73
2022/05/12 09:16:27;;;;;;;9.35;1.85;;;;;;;18.71;100.00;101709.93;1882269;75;21045;-73
2022/05/12 09:18:55;;;;;;;6.03;1.80;;;;;;;17.88;100.00;101701.88;1880837;75;21017;-73
2022/05/12 09:21:28;;;;;;;4.70;1.50;;;;;;;18.34;100.00;101706.56;1881118;75;21041;-73
2022/05/12 09:24:00;;;;;;;9.48;2.17;;;;;;;18.76;100.00;101694.25;1881497;76;21584;-73
2022/05/12 09:26:37;;;;;;;7.03;1.67;;;;;;;18.41;100.00;101696.03;1880368;74;21080;-73
2022/05/12 09:29:17;;;;;;;6.92;2.00;;;;;;;18.80;100.00;101688.98;1881126;74;21124;-73
2022/05/12 09:31:47;;;;;;;3.52;1.30;;;;;;;19.32;100.00;101690.77;1880984;74;21061;-73
2022/05/12 09:34:23;;;;;;;9.55;1.90;;;;;;;19.79;100.00;101704.23;1881933;76;21076;-73
2022/05/12 09:36:51;;;;;;;9.28;1.45;;;;;;;19.33;100.00;101689.86;1881701;75;21025;-73
2022/05/12 09:39:40;;;;;;;2.62;1.50;;;;;;;20.11;100.00;101692.32;1881683;74;21126;-74
2022/05/12 09:42:16;;;;;;;4.30;1.70;;;;;;;19.94;100.00;101690.87;1874542;76;21097;-73
2022/05/12 09:44:54;;;;;;;8.20;2.22;;;;;;;19.41;100.00;101685.38;1887960;74;21617;-73
2022/05/12 09:47:22;;;;;;;2.80;1.00;;;;;;;19.53;100.00;101676.48;1890163;74;21121;-74
2022/05/12 09:49:50;;;;;;;4.67;1.40;;;;;;;20.67;100.00;101687.59;1871720;75;21038;-73
2022/05/12 09:52:26;;;;;;;8.78;1.82;;;;;;;21.19;100.00;101687.23;1890890;74;21818;-74
2022/05/12 09:55:20;;;;;;;6.85;1.65;;;;;;;20.56;100.00;101695.69;1890222;74;21046;-74
2022/05/12 09:57:53;;;;;;;9.07;2.37;;;;;;;20.80;100.00;101697.31;1890338;76;21541;-73
2022/05/12 10:00:38;;;;;;;6.60;1.77;;;;;;;20.58;100.00;101701.28;1890307;75;21042;-74
2022/05/12 10:09:19;;;;;;;;;;;;;;;18.47;100.00;101687.75;1871685;76;21065;-73
2022/05/12 10:11:58;;;;;;;9.05;1.90;;;;;;;18.04;100.00;101694.77;1890211;76;20384;-73
2022/05/12 10:14:50;;;;;;;4.37;1.77;;;;;;;18.53;100.00;101690.24;1890639;76;21214;-73
2022/05/12 10:17:44;;;;;;;7.40;1.50;;;;;;;19.63;100.00;101682.38;1890771;76;21132;-73
2022/05/12 10:20:15;;;;;;;8.83;1.47;;;;;;;19.63;100.00;101682.38;1890183;76;21190;-73
2022/05/12 10:23:05;;;;;;;6.92;1.57;;;;;;;20.70;100.00;101680.53;1890164;74;21022;-75
2022/05/12 10:25:47;;;;;;;3.42;1.30;;;;;;;21.13;100.00;101685.20;1892248;74;21148;-74
2022/05/12 10:28:19;;;;;;;6.28;1.65;;;;;;;21.87;100.00;101678.87;1889100;74;21073;-73
2022/05/12 10:31:01;;;;;;;2.90;1.32;;;;;;;21.66;100.00;101681.61;1889562;74;21084;-74
2022/05/12 10:33:47;;;;;;;8.00;1.47;;;;;;;19.84;100.00;101685.44;1892779;74;21502;-73
2022/05/12 10:36:42;;;;;;;3.70;1.07;;;;;;;19.19;100.00;101687.07;1889343;74;21572;-73
2022/05/12 10:39:27;;;;;;;2.77;1.02;;;;;;;18.37;100.00;101697.42;1889113;74;21589;-74
2022/05/12 10:42:00;;;;;;;7.40;2.05;;;;;;;18.62;100.00;101693.16;1900983;74;21710;-74
2022/05/12 10:44:34;;;;;;;3.72;1.17;;;;;;;18.58;100.00;101696.69;1893611;74;21097;-74
2022/05/12 10:47:25;;;;;;;4.87;1.47;;;;;;;18.46;100.00;101695.11;1890649;76;21058;-74
2022/05/12 10:50:13;;;;;;;9.23;2.33;;;;;;;19.89;100.00;101704.45;1868883;76;21115;-74
2022/05/12 10:53:03;;;;;;;8.68;2.25;;;;;;;21.03;100.00;101702.42;1898948;73;21581;-74
2022/05/12 10:55:46;;;;;;;5.87;1.45;;;;;;;21.85;100.00;101695.08;1889892;75;21093;-74
2022/05/12 10:58:29;;;;;;;16.10;2.98;;;;;;;23.00;100.00;101693.77;1890469;75;21214;-74
2022/05/12 11:01:11;;;;;;;8.63;3.12;;;;;;;21.96;100.00;101701.30;1890673;76;21523;-73
2022/05/12 11:03:45;;;;;;;3.58;1.62;;;;;;;21.08;100.00;101716.25;1881022;75;21057;-74
2022/05/12 11:06:15;;;;;;;7.95;1.70;;;;;;;19.89;100.00;101712.74;1865863;76;21494;-74
2022/05/12 11:08:51;;;;;;;9.43;2.15;;;;;;;19.38;100.00;101710.17;1890286;75;21434;-74
2022/05/12 11:11:22;;;;;;;12.03;3.00;;;;;;;19.39;100.00;101700.63;1890536;76;21062;-74
2022/05/12 11:14:08;;;;;;;7.85;1.82;;;;;;;19.59;100.00;101701.11;1890926;76;21689;-74
2022/05/12 11:16:38;;;;;;;6.85;1.92;;;;;;;20.38;100.00;101704.33;1896110;74;21047;-73
2022/05/12 11:19:17;;;;;;;7.03;1.95;;;;;;;21.28;100.00;101696.59;1905801;74;21033;-74
2022/05/12 11:21:50;;;;;;;9.78;2.72;;;;;;;21.42;100.00;101702.77;1889789;76;21046;-76
2022/05/12 11:24:23;;;;;;;9.90;3.17;;;;;;;20.80;100.00;101704.67;1892118;74;21155;-76
2022/05/12 11:26:59;;;;;;;5.80;2.45;;;;;;;20.63;100.00;101703.33;1890362;76;21510;-76
2022/05/12 11:29:50;;;;;;;11.70;2.98;;;;;;;20.92;100.00;101702.70;1890443;76;21564;-75
2022/05/12 11:32:52;;;;;;;8.68;2.25;;;;;;;20.31;100.00;101699.70;1873075;76;21165;-75
2022/05/12 11:35:28;;;;;;;4.87;2.10;;;;;;;20.08;100.00;101709.33;1890808;75;21086;-75
2022/05/12 11:37:59;;;;;;;5.05;1.67;;;;;;;19.65;100.00;101707.11;1889743;76;21037;-75
2022/05/12 11:40:48;;;;;;;9.15;2.52;;;;;;;19.30;100.00;101707.72;1890206;75;21167;-75
2022/05/12 11:46:47;;;;;;;10.13;2.22;;;;;;;19.11;100.00;101708.91;1830618;77;21107;-74
2022/05/12 11:49:34;;;;;;;7.15;2.30;;;;;;;18.77;100.00;101705.08;1827994;77;21059;-74
2022/05/12 11:52:10;;;;;;;9.98;2.08;;;;;;;18.54;100.00;101709.73;1871687;76;21089;-74
2022/05/12 11:54:56;;;;;;;7.90;1.57;;;;;;;18.62;100.00;101709.61;1890608;76;21074;-74